createdAt,value
2023-01-31T00:01:35.558Z,100450.03
2023-01-31T00:04:04.882Z,100448.84
2023-01-31T00:06:51.548Z,100438.44
2023-01-31T00:09:18.206Z,100420.22
2023-01-31T00:11:44.744Z,100423.25
2023-01-31T00:14:16.399Z,100421.72
2023-01-31T00:16:42.839Z,100415.22
2023-01-31T00:19:09.276Z,100413.03
2023-01-31T00:21:36.092Z,100408.41
2023-01-31T00:24:05.517Z,100408.31
2023-01-31T00:26:34.864Z,100409.97
2023-01-31T00:29:03.213Z,100411.69
2023-01-31T00:31:32.882Z,100413.00
2023-01-31T00:34:02.299Z,100405.50
2023-01-31T00:36:33.220Z,100409.03
2023-01-31T00:39:01.874Z,100412.91
2023-01-31T00:41:29.798Z,100408.72
2023-01-31T00:43:56.738Z,100408.06
2023-01-31T00:46:26.050Z,100411.38
2023-01-31T00:48:53.201Z,100405.44
2023-01-31T00:51:20.226Z,100404.81
2023-01-31T00:53:46.719Z,100408.06
2023-01-31T00:56:15.788Z,100399.03
2023-01-31T00:58:42.511Z,100402.06
2023-01-31T01:01:16.972Z,100393.56
2023-01-31T01:03:44.259Z,100398.34
2023-01-31T01:06:11.068Z,100398.47
2023-01-31T01:08:38.994Z,100395.59
2023-01-31T01:11:20.972Z,100395.06
2023-01-31T01:13:47.596Z,100408.66
2023-01-31T01:16:16.723Z,100421.03
2023-01-31T01:18:45.315Z,100415.81
2023-01-31T01:21:32.394Z,100426.75
2023-01-31T01:24:00.860Z,100413.22
2023-01-31T01:26:29.664Z,100417.06
2023-01-31T01:28:57.609Z,100422.09
2023-01-31T01:31:30.440Z,100416.78
2023-01-31T01:34:03.809Z,100422.91
2023-01-31T01:36:34.593Z,100426.91
2023-01-31T01:39:01.385Z,100430.09
2023-01-31T01:41:28.624Z,100427.16
2023-01-31T01:43:58.464Z,100433.00
2023-01-31T01:46:26.719Z,100438.38
2023-01-31T01:48:58.320Z,100434.41
2023-01-31T01:51:25.139Z,100436.28
2023-01-31T01:53:54.459Z,100433.44
2023-01-31T01:56:26.858Z,100418.94
2023-01-31T01:59:14.101Z,100418.84
2023-01-31T02:01:40.661Z,100423.66
2023-01-31T02:04:11.652Z,100425.44
2023-01-31T02:06:38.100Z,100432.38
2023-01-31T02:09:08.075Z,100433.09
2023-01-31T02:11:34.530Z,100424.88
2023-01-31T02:14:03.412Z,100416.56
2023-01-31T02:16:29.990Z,100420.47
2023-01-31T02:18:57.182Z,100418.38
2023-01-31T02:21:48.402Z,100419.25
2023-01-31T02:24:33.635Z,100408.75
2023-01-31T02:27:15.338Z,100416.41
2023-01-31T02:29:41.682Z,100417.94
2023-01-31T02:32:27.404Z,100430.81
2023-01-31T02:35:12.517Z,100425.47
2023-01-31T02:38:16.511Z,100433.03
2023-01-31T02:41:07.362Z,100435.81
2023-01-31T02:44:12.579Z,100432.97
2023-01-31T02:47:16.249Z,100434.97
2023-01-31T02:49:49.553Z,100427.94
2023-01-31T02:52:19.038Z,100427.59
2023-01-31T02:55:15.275Z,100425.59
2023-01-31T02:57:43.164Z,100431.53
2023-01-31T03:00:10.767Z,100425.84
2023-01-31T03:02:37.499Z,100422.75
2023-01-31T03:05:04.284Z,100421.66
2023-01-31T03:07:37.878Z,100431.59
2023-01-31T03:10:22.022Z,100421.59
2023-01-31T03:12:55.665Z,100425.50
2023-01-31T03:16:21.550Z,100427.88
2023-01-31T03:19:13.645Z,100421.19
2023-01-31T03:21:45.407Z,100430.16
2023-01-31T03:24:13.337Z,100425.00
2023-01-31T03:26:40.213Z,100438.78
2023-01-31T03:29:07.077Z,100432.84
2023-01-31T03:31:41.885Z,100428.13
2023-01-31T03:34:11.522Z,100435.06
2023-01-31T03:37:17.066Z,100426.41
2023-01-31T03:39:52.188Z,100420.16
2023-01-31T03:42:40.349Z,100419.03
2023-01-31T03:45:14.683Z,100422.75
2023-01-31T03:47:43.474Z,100425.94
2023-01-31T03:50:14.110Z,100435.78
2023-01-31T03:52:49.668Z,100430.09
2023-01-31T03:55:19.706Z,100433.09
2023-01-31T03:57:51.071Z,100436.13
2023-01-31T04:00:19.608Z,100439.69
2023-01-31T04:02:49.561Z,100427.38
2023-01-31T04:05:23.177Z,100426.41
2023-01-31T04:07:49.575Z,100431.78
2023-01-31T04:10:18.172Z,100435.19
2023-01-31T04:12:45.588Z,100435.38
2023-01-31T04:15:12.769Z,100426.31
2023-01-31T04:17:39.328Z,100432.28
2023-01-31T04:20:06.514Z,100421.91
2023-01-31T04:22:33.264Z,100420.78
2023-01-31T04:24:59.746Z,100415.22
2023-01-31T04:27:26.155Z,100402.59
2023-01-31T04:29:52.623Z,100414.09
2023-01-31T04:32:19.093Z,100415.63
2023-01-31T04:34:45.552Z,100417.44
2023-01-31T04:37:12.003Z,100423.69
2023-01-31T04:39:38.414Z,100431.28
2023-01-31T04:42:04.868Z,100429.63
2023-01-31T04:44:31.883Z,100422.94
2023-01-31T04:46:58.406Z,100430.91
2023-01-31T04:49:24.911Z,100425.72
2023-01-31T04:51:51.282Z,100418.38
2023-01-31T04:54:17.704Z,100416.75
2023-01-31T04:56:44.111Z,100421.09
2023-01-31T04:59:10.499Z,100418.38
2023-01-31T05:01:36.890Z,100436.41
2023-01-31T05:04:03.299Z,100435.56
2023-01-31T05:06:29.811Z,100435.97
2023-01-31T05:08:56.241Z,100429.28
2023-01-31T05:11:22.967Z,100439.16
2023-01-31T05:13:49.544Z,100430.50
2023-01-31T05:16:16.068Z,100425.94
2023-01-31T05:18:42.568Z,100428.63
2023-01-31T05:21:09.013Z,100441.59
2023-01-31T05:23:36.142Z,100447.53
2023-01-31T05:26:03.513Z,100450.22
2023-01-31T05:28:30.005Z,100443.84
2023-01-31T05:31:03.102Z,100430.91
2023-01-31T05:33:31.788Z,100433.16
2023-01-31T05:35:58.369Z,100440.19
2023-01-31T05:38:24.801Z,100431.84
2023-01-31T05:40:51.697Z,100430.53
2023-01-31T05:43:18.727Z,100434.88
2023-01-31T05:45:45.584Z,100432.75
2023-01-31T05:48:12.084Z,100437.81
2023-01-31T05:50:38.473Z,100444.38
2023-01-31T05:53:04.870Z,100438.44
2023-01-31T05:55:31.376Z,100433.38
2023-01-31T05:57:57.846Z,100430.13
2023-01-31T06:00:24.307Z,100426.88
2023-01-31T06:02:50.837Z,100432.38
2023-01-31T06:05:17.600Z,100436.56
2023-01-31T06:07:44.142Z,100434.66
2023-01-31T06:10:12.031Z,100440.50
2023-01-31T06:12:38.456Z,100434.38
2023-01-31T06:15:05.308Z,100427.28
2023-01-31T06:17:31.760Z,100431.91
2023-01-31T06:19:58.184Z,100433.84
2023-01-31T06:22:24.617Z,100442.44
2023-01-31T06:24:51.030Z,100431.16
2023-01-31T06:27:19.920Z,100433.38
2023-01-31T06:29:46.383Z,100430.53
2023-01-31T06:32:12.874Z,100443.16
2023-01-31T06:34:39.350Z,100438.44
2023-01-31T06:37:09.537Z,100427.28
2023-01-31T06:39:36.131Z,100428.97
2023-01-31T06:42:02.939Z,100429.38
2023-01-31T06:44:29.336Z,100429.09
2023-01-31T06:46:56.142Z,100424.53
2023-01-31T06:49:22.639Z,100421.41
2023-01-31T06:51:49.052Z,100432.41
2023-01-31T06:54:15.474Z,100431.34
2023-01-31T06:56:41.897Z,100434.81
2023-01-31T06:59:08.428Z,100427.97
2023-01-31T07:01:34.872Z,100433.03
2023-01-31T07:04:01.654Z,100434.81
2023-01-31T07:06:28.232Z,100432.44
2023-01-31T07:08:54.745Z,100429.19
2023-01-31T07:11:21.178Z,100433.34
2023-01-31T07:13:47.947Z,100436.28
2023-01-31T07:16:16.798Z,100434.53
2023-01-31T07:18:43.285Z,100432.13
2023-01-31T07:21:10.812Z,100442.84
2023-01-31T07:23:37.276Z,100438.50
2023-01-31T07:26:05.370Z,100439.88
2023-01-31T07:28:32.274Z,100430.66
2023-01-31T07:31:10.805Z,100427.66
2023-01-31T07:33:38.044Z,100434.41
2023-01-31T07:36:05.983Z,100424.72
2023-01-31T07:38:32.898Z,100429.78
2023-01-31T07:41:03.409Z,100429.19
2023-01-31T07:43:30.913Z,100435.09
2023-01-31T07:45:57.704Z,100444.34
2023-01-31T07:48:24.581Z,100452.06
2023-01-31T07:50:58.738Z,100456.53
2023-01-31T07:53:25.168Z,100458.31
2023-01-31T07:55:51.566Z,100450.91
2023-01-31T07:58:17.977Z,100454.91
2023-01-31T08:01:03.061Z,100453.28
2023-01-31T08:03:33.926Z,100447.47
2023-01-31T08:06:02.884Z,100453.56
2023-01-31T08:08:29.656Z,100442.44
2023-01-31T08:10:56.182Z,100447.56
2023-01-31T08:13:22.628Z,100456.28
2023-01-31T08:15:51.509Z,100453.94
2023-01-31T08:18:17.911Z,100456.34
2023-01-31T08:20:45.007Z,100461.13
2023-01-31T08:23:11.482Z,100468.59
2023-01-31T08:25:37.973Z,100470.09
2023-01-31T08:28:04.520Z,100471.56
2023-01-31T08:30:31.471Z,100476.91
2023-01-31T08:32:58.101Z,100474.72
2023-01-31T08:35:26.610Z,100461.31
2023-01-31T08:37:55.316Z,100463.41
2023-01-31T08:40:25.093Z,100467.16
2023-01-31T08:42:58.558Z,100459.13
2023-01-31T08:45:25.058Z,100468.03
2023-01-31T08:47:55.860Z,100465.38
2023-01-31T08:50:27.946Z,100457.06
2023-01-31T08:52:55.658Z,100454.06
2023-01-31T08:55:22.893Z,100451.22
2023-01-31T08:57:59.435Z,100465.09
2023-01-31T09:00:30.209Z,100454.41
2023-01-31T09:02:58.647Z,100459.16
2023-01-31T09:05:27.426Z,100454.72
2023-01-31T09:07:54.041Z,100454.28
2023-01-31T09:10:21.178Z,100450.53
2023-01-31T09:12:47.847Z,100450.84
2023-01-31T09:15:14.616Z,100434.47
2023-01-31T09:17:42.418Z,100428.19
2023-01-31T09:20:10.168Z,100429.09
2023-01-31T09:22:36.981Z,100432.81
2023-01-31T09:25:04.760Z,100436.25
2023-01-31T09:27:31.161Z,100433.00
2023-01-31T09:29:57.691Z,100431.31
2023-01-31T09:32:24.197Z,100436.72
2023-01-31T09:34:50.662Z,100441.03
2023-01-31T09:37:17.424Z,100451.34
2023-01-31T09:39:43.943Z,100444.94
2023-01-31T09:42:26.886Z,100443.56
2023-01-31T09:45:00.046Z,100452.06
2023-01-31T09:47:29.987Z,100450.28
2023-01-31T09:50:01.088Z,100445.19
2023-01-31T09:52:28.530Z,100441.00
2023-01-31T09:54:55.342Z,100444.72
2023-01-31T09:57:50.183Z,100441.00
2023-01-31T10:00:29.092Z,100436.53
2023-01-31T10:03:40.136Z,100442.50
2023-01-31T10:06:26.618Z,100436.53
2023-01-31T10:08:54.951Z,100434.41
2023-01-31T10:11:36.518Z,100432.31
2023-01-31T10:14:21.390Z,100426.63
2023-01-31T10:16:54.682Z,100438.25
2023-01-31T10:19:47.488Z,100436.31
2023-01-31T10:22:26.286Z,100427.47
2023-01-31T10:24:58.550Z,100429.81
2023-01-31T10:27:48.286Z,100432.38
2023-01-31T10:30:21.466Z,100417.13
2023-01-31T10:32:52.047Z,100418.47
2023-01-31T10:35:24.437Z,100415.44
2023-01-31T10:37:56.556Z,100416.94
2023-01-31T10:40:25.884Z,100413.44
2023-01-31T10:43:00.294Z,100402.19
2023-01-31T10:45:31.453Z,100401.00
2023-01-31T10:48:08.329Z,100393.78
2023-01-31T10:50:48.652Z,100396.00
2023-01-31T10:53:42.857Z,100398.53
2023-01-31T10:56:21.120Z,100385.97
2023-01-31T10:58:47.783Z,100387.47
2023-01-31T11:01:15.225Z,100376.31
2023-01-31T11:03:49.103Z,100365.25
2023-01-31T11:06:15.527Z,100362.97
2023-01-31T11:08:57.278Z,100366.53
2023-01-31T11:11:25.544Z,100367.00
2023-01-31T11:14:03.604Z,100347.47
2023-01-31T11:16:37.746Z,100352.53
2023-01-31T11:19:43.201Z,100347.75
2023-01-31T11:22:30.400Z,100329.22
2023-01-31T11:24:58.759Z,100319.31
2023-01-31T11:27:42.601Z,100314.50
2023-01-31T11:30:25.974Z,100315.53
2023-01-31T11:32:52.629Z,100317.88
2023-01-31T11:35:18.997Z,100319.94
2023-01-31T11:37:58.607Z,100327.56
2023-01-31T11:40:36.475Z,100331.88
2023-01-31T11:43:05.604Z,100328.88
2023-01-31T11:45:34.173Z,100325.22
2023-01-31T11:48:17.392Z,100316.06
2023-01-31T11:50:46.998Z,100317.50
2023-01-31T11:53:21.440Z,100309.13
2023-01-31T11:55:49.361Z,100308.50
2023-01-31T11:58:24.684Z,100295.16
2023-01-31T12:01:18.983Z,100295.94
2023-01-31T12:04:01.740Z,100289.22
2023-01-31T12:06:37.302Z,100279.69
2023-01-31T12:09:18.122Z,100276.94
2023-01-31T12:11:52.091Z,100266.75
2023-01-31T12:14:19.573Z,100261.34
2023-01-31T12:16:47.339Z,100247.72
2023-01-31T12:19:13.820Z,100239.97
2023-01-31T12:22:00.665Z,100223.22
2023-01-31T12:24:58.153Z,100203.78
2023-01-31T12:27:33.676Z,100215.09
2023-01-31T12:30:27.249Z,100215.63
2023-01-31T12:32:58.909Z,100212.03
2023-01-31T12:35:40.173Z,100211.03
2023-01-31T12:38:18.988Z,100208.13
2023-01-31T12:41:11.626Z,100208.41
2023-01-31T12:43:40.980Z,100210.03
2023-01-31T12:46:41.260Z,100206.88
2023-01-31T12:49:16.524Z,100204.31
2023-01-31T12:52:04.715Z,100212.97
2023-01-31T12:54:43.941Z,100201.28
2023-01-31T12:57:29.262Z,100209.66
2023-01-31T13:00:14.368Z,100205.09
2023-01-31T13:02:52.504Z,100204.47
2023-01-31T13:05:31.801Z,100202.91
2023-01-31T13:08:14.341Z,100194.28
2023-01-31T13:10:45.993Z,100194.41
2023-01-31T13:13:19.150Z,100194.41
2023-01-31T13:15:51.617Z,100197.19
2023-01-31T13:18:19.659Z,100203.56
2023-01-31T13:20:51.983Z,100197.69
2023-01-31T13:23:43.396Z,100197.19
2023-01-31T13:26:14.833Z,100179.13
2023-01-31T13:29:02.857Z,100175.34
2023-01-31T13:31:34.373Z,100166.16
2023-01-31T13:34:19.665Z,100157.78
2023-01-31T13:36:51.065Z,100149.88
2023-01-31T13:39:24.550Z,100126.72
2023-01-31T13:41:51.068Z,100131.03
2023-01-31T13:44:17.870Z,100138.41
2023-01-31T13:46:52.406Z,100127.34
2023-01-31T13:49:25.557Z,100130.03
2023-01-31T13:52:20.495Z,100122.88
2023-01-31T13:54:57.634Z,100135.13
2023-01-31T13:57:28.775Z,100138.03
2023-01-31T14:00:07.185Z,100138.03
2023-01-31T14:02:33.701Z,100142.50
2023-01-31T14:05:44.843Z,100133.84
2023-01-31T14:08:26.264Z,100123.66
2023-01-31T14:10:54.142Z,100123.53
2023-01-31T14:13:29.667Z,100150.13
2023-01-31T14:15:58.279Z,100149.13
2023-01-31T14:18:35.404Z,100142.50
2023-01-31T14:21:31.041Z,100148.97
2023-01-31T14:23:59.178Z,100148.47
2023-01-31T14:26:43.953Z,100152.66
2023-01-31T14:29:10.671Z,100153.31
2023-01-31T14:31:37.102Z,100161.56
2023-01-31T14:34:03.826Z,100150.22
2023-01-31T14:36:44.815Z,100151.13
2023-01-31T14:39:32.117Z,100149.13
2023-01-31T14:42:33.806Z,100144.91
2023-01-31T14:45:24.720Z,100150.88
2023-01-31T14:48:03.272Z,100154.56
2023-01-31T14:50:59.725Z,100164.41
2023-01-31T14:53:37.876Z,100173.13
2023-01-31T14:56:10.747Z,100173.03
2023-01-31T14:58:37.324Z,100182.06
2023-01-31T15:01:06.444Z,100190.59
2023-01-31T15:03:38.608Z,100198.00
2023-01-31T15:06:15.683Z,100205.72
2023-01-31T15:08:51.184Z,100194.41
2023-01-31T15:11:40.249Z,100204.59
2023-01-31T15:14:34.232Z,100194.91
2023-01-31T15:17:32.161Z,100191.75
2023-01-31T15:20:18.350Z,100196.44
2023-01-31T15:22:45.565Z,100199.88
2023-01-31T15:25:28.309Z,100203.69
2023-01-31T15:27:55.965Z,100194.78
2023-01-31T15:30:23.471Z,100200.63
2023-01-31T15:33:03.094Z,100185.50
2023-01-31T15:35:44.085Z,100188.81
2023-01-31T15:38:36.785Z,100189.06
2023-01-31T15:41:25.790Z,100184.72
2023-01-31T15:43:56.806Z,100183.72
2023-01-31T15:46:24.829Z,100196.31
2023-01-31T15:48:51.390Z,100196.06
2023-01-31T15:51:18.699Z,100192.34
2023-01-31T15:53:45.675Z,100190.34
2023-01-31T15:56:18.879Z,100196.19
2023-01-31T15:58:47.061Z,100201.78
2023-01-31T16:01:16.558Z,100204.31
2023-01-31T16:03:51.712Z,100204.47
2023-01-31T16:06:22.420Z,100196.19
2023-01-31T16:09:01.167Z,100203.06
2023-01-31T16:11:33.324Z,100201.66
2023-01-31T16:14:02.908Z,100203.31
2023-01-31T16:16:29.767Z,100198.47
2023-01-31T16:18:58.247Z,100205.34
2023-01-31T16:21:39.958Z,100209.03
2023-01-31T16:24:17.930Z,100207.38
2023-01-31T16:27:07.843Z,100200.63
2023-01-31T16:29:45.024Z,100194.16
2023-01-31T16:32:17.341Z,100199.75
2023-01-31T16:34:43.783Z,100198.22
2023-01-31T16:37:12.515Z,100194.03
2023-01-31T16:39:47.863Z,100194.91
2023-01-31T16:42:22.192Z,100208.41
2023-01-31T16:44:49.298Z,100209.91
2023-01-31T16:47:30.954Z,100209.91
2023-01-31T16:50:17.336Z,100206.63
2023-01-31T16:52:44.894Z,100199.25
2023-01-31T16:55:15.925Z,100197.59
2023-01-31T16:57:42.388Z,100197.69
2023-01-31T17:00:23.772Z,100203.31
2023-01-31T17:02:59.911Z,100205.22
2023-01-31T17:05:29.423Z,100206.88
2023-01-31T17:07:56.762Z,100208.53
2023-01-31T17:10:27.072Z,100211.84
2023-01-31T17:13:19.798Z,100211.97
2023-01-31T17:15:47.000Z,100200.25
2023-01-31T17:18:13.543Z,100190.84
2023-01-31T17:20:41.916Z,100189.81
2023-01-31T17:23:10.320Z,100184.97
2023-01-31T17:25:37.008Z,100196.44
2023-01-31T17:28:03.999Z,100187.66
2023-01-31T17:30:31.339Z,100194.16
2023-01-31T17:32:58.625Z,100187.03
2023-01-31T17:35:38.788Z,100187.91
2023-01-31T17:38:05.676Z,100188.56
2023-01-31T17:40:32.434Z,100188.56
2023-01-31T17:43:04.413Z,100190.59
2023-01-31T17:45:32.271Z,100188.81
2023-01-31T17:47:58.688Z,100188.56
2023-01-31T17:50:27.530Z,100189.06
2023-01-31T17:52:54.654Z,100187.03
2023-01-31T17:55:23.089Z,100194.53
2023-01-31T17:57:50.153Z,100198.47
2023-01-31T18:00:18.546Z,100188.56
2023-01-31T18:02:45.107Z,100181.56
2023-01-31T18:05:13.152Z,100173.28
2023-01-31T18:07:40.403Z,100183.22
2023-01-31T18:10:08.131Z,100188.56
2023-01-31T18:12:36.410Z,100181.56
2023-01-31T18:15:03.102Z,100191.50
2023-01-31T18:17:29.489Z,100194.66
2023-01-31T18:19:56.000Z,100193.16
2023-01-31T18:22:23.383Z,100193.91
2023-01-31T18:24:49.800Z,100188.06
2023-01-31T18:27:16.701Z,100185.50
2023-01-31T18:29:43.101Z,100197.19
2023-01-31T18:32:10.389Z,100194.16
2023-01-31T18:34:37.331Z,100203.59
2023-01-31T18:37:06.680Z,100205.72
2023-01-31T18:39:33.879Z,100202.03
2023-01-31T18:42:00.499Z,100186.91
2023-01-31T18:44:29.126Z,100190.47
2023-01-31T18:46:55.561Z,100192.75
2023-01-31T18:49:22.092Z,100190.09
2023-01-31T18:51:49.660Z,100190.19
2023-01-31T18:54:16.078Z,100199.38
2023-01-31T18:56:43.439Z,100196.59
2023-01-31T18:59:09.860Z,100199.75
2023-01-31T19:01:36.467Z,100204.09
2023-01-31T19:04:03.296Z,100204.59
2023-01-31T19:06:37.580Z,100199.75
2023-01-31T19:09:06.022Z,100204.09
2023-01-31T19:11:32.642Z,100199.50
2023-01-31T19:13:59.269Z,100201.53
2023-01-31T19:16:28.320Z,100207.03
2023-01-31T19:18:56.208Z,100206.13
2023-01-31T19:21:25.335Z,100199.38
2023-01-31T19:23:54.945Z,100210.47
2023-01-31T19:26:21.433Z,100200.88
2023-01-31T19:28:48.468Z,100201.28
2023-01-31T19:31:26.021Z,100203.19
2023-01-31T19:33:57.492Z,100205.63
2023-01-31T19:36:25.989Z,100191.09
2023-01-31T19:38:52.402Z,100193.41
2023-01-31T19:41:20.933Z,100193.66
2023-01-31T19:43:51.110Z,100195.94
2023-01-31T19:46:18.376Z,100188.06
2023-01-31T19:48:44.890Z,100178.13
2023-01-31T19:51:13.660Z,100177.38
2023-01-31T19:53:40.179Z,100182.97
2023-01-31T19:56:06.969Z,100181.31
2023-01-31T19:58:33.469Z,100176.09
2023-01-31T20:01:11.357Z,100173.53
2023-01-31T20:03:38.298Z,100179.91
2023-01-31T20:06:10.325Z,100177.88
2023-01-31T20:08:37.307Z,100173.44
2023-01-31T20:11:06.004Z,100175.06
2023-01-31T20:13:32.576Z,100189.31
2023-01-31T20:15:59.405Z,100178.38
2023-01-31T20:18:26.066Z,100181.06
2023-01-31T20:20:53.070Z,100184.75
2023-01-31T20:23:19.850Z,100182.22
2023-01-31T20:25:52.699Z,100184.75
2023-01-31T20:28:19.864Z,100182.97
2023-01-31T20:30:46.796Z,100169.47
2023-01-31T20:33:14.347Z,100171.25
2023-01-31T20:35:41.312Z,100154.81
2023-01-31T20:38:08.970Z,100162.59
2023-01-31T20:40:36.783Z,100168.06
2023-01-31T20:43:03.308Z,100152.41
2023-01-31T20:45:29.848Z,100161.31
2023-01-31T20:47:57.363Z,100159.56
2023-01-31T20:50:24.621Z,100159.56
2023-01-31T20:52:53.509Z,100166.28
2023-01-31T20:55:20.176Z,100160.69
2023-01-31T20:57:50.160Z,100169.97
2023-01-31T21:00:18.245Z,100161.56
2023-01-31T21:02:44.923Z,100164.09
2023-01-31T21:05:11.955Z,100166.94
2023-01-31T21:07:39.021Z,100165.91
2023-01-31T21:10:06.291Z,100175.31
2023-01-31T21:12:32.843Z,100174.81
2023-01-31T21:14:59.241Z,100170.72
2023-01-31T21:17:39.205Z,100169.72
2023-01-31T21:20:07.590Z,100182.44
2023-01-31T21:22:34.431Z,100182.94
2023-01-31T21:25:00.884Z,100175.81
2023-01-31T21:27:27.378Z,100179.75
2023-01-31T21:29:53.812Z,100166.94
2023-01-31T21:32:20.268Z,100167.44
2023-01-31T21:34:46.827Z,100168.19
2023-01-31T21:37:13.311Z,100165.00
2023-01-31T21:39:39.725Z,100175.06
2023-01-31T21:42:15.209Z,100164.13
2023-01-31T21:44:42.639Z,100160.03
2023-01-31T21:47:09.583Z,100161.28
2023-01-31T21:49:36.023Z,100160.69
2023-01-31T21:52:02.551Z,100154.81
2023-01-31T21:54:29.163Z,100155.69
2023-01-31T21:56:55.759Z,100155.19
2023-01-31T21:59:22.232Z,100147.69
2023-01-31T22:01:48.671Z,100151.09
2023-01-31T22:04:20.476Z,100147.78
2023-01-31T22:06:48.560Z,100140.66
2023-01-31T22:09:15.389Z,100153.13
2023-01-31T22:11:42.720Z,100144.50
2023-01-31T22:14:12.048Z,100148.81
2023-01-31T22:16:38.587Z,100142.94
2023-01-31T22:19:05.385Z,100138.88
2023-01-31T22:21:34.187Z,100143.75
2023-01-31T22:24:02.622Z,100139.88
2023-01-31T22:26:31.460Z,100147.03
2023-01-31T22:28:59.912Z,100139.16
2023-01-31T22:31:26.885Z,100125.63
2023-01-31T22:33:53.390Z,100119.13
2023-01-31T22:36:20.076Z,100116.59
2023-01-31T22:38:46.587Z,100120.03
2023-01-31T22:41:14.769Z,100123.38
2023-01-31T22:43:42.792Z,100119.13
2023-01-31T22:46:12.552Z,100113.19
2023-01-31T22:48:39.155Z,100117.72
2023-01-31T22:51:13.459Z,100098.13
2023-01-31T22:53:40.488Z,100099.13
2023-01-31T22:56:18.469Z,100087.06
2023-01-31T22:58:45.188Z,100087.16
2023-01-31T23:01:15.544Z,100093.94
2023-01-31T23:03:42.159Z,100090.50
2023-01-31T23:06:09.020Z,100094.69
2023-01-31T23:08:35.648Z,100094.03
2023-01-31T23:11:10.035Z,100084.50
2023-01-31T23:13:36.619Z,100093.81
2023-01-31T23:16:04.240Z,100084.28
2023-01-31T23:18:30.692Z,100080.06
2023-01-31T23:21:08.250Z,100079.19
2023-01-31T23:23:35.044Z,100065.78
2023-01-31T23:26:01.833Z,100076.97
2023-01-31T23:28:28.469Z,100082.06
2023-01-31T23:30:55.132Z,100070.38
2023-01-31T23:33:21.633Z,100070.38
2023-01-31T23:35:49.329Z,100072.25
2023-01-31T23:38:15.961Z,100063.72
2023-01-31T23:40:42.375Z,100059.75
2023-01-31T23:43:09.016Z,100065.28
2023-01-31T23:45:35.700Z,100063.50
2023-01-31T23:48:02.126Z,100068.59
2023-01-31T23:50:28.561Z,100053.53
2023-01-31T23:52:54.978Z,100056.31
2023-01-31T23:55:22.728Z,100048.69
2023-01-31T23:57:50.315Z,100054.66
